Time;durP1;ratioP1;P1;durP2;ratioP2;P2;SDS_P1;SDS_P2;PMS_P1;PMS_P2;Temp;Humidity;BMP_temperature;BMP_pressure;BME280_temperature;BME280_humidity;BME280_pressure;Samples;Min_cycle;Max_cycle;Signal;HPM_P1;HPM_P2
2021/12/23 00:01:49;;;;;;;70.63;22.30;;;;;;;;;;5040976;28;20036;-74
2021/12/23 00:04:15;;;;;;;54.22;22.10;;;;;;;;;;5048906;28;20033;-74
2021/12/23 00:06:43;;;;;;;61.08;21.30;;;-1.60;99.90;;;;;;5034459;28;20026;-72
2021/12/23 00:09:09;;;;;;;62.15;21.67;;;;;;;;;;5028874;28;20415;-74
2021/12/23 00:11:35;;;;;;;57.45;22.17;;;;;;;;;;5028395;28;20029;-74
2021/12/23 00:14:07;;;;;;;60.28;21.20;;;;;;;;;;5028551;28;20036;-73
2021/12/23 00:16:55;;;;;;;55.83;20.98;;;-1.80;99.90;;;;;;5028004;28;20030;-73
2021/12/23 00:24:40;;;;;;;50.05;20.13;;;;;;;;;;5029071;28;20040;-73
2021/12/23 00:27:06;;;;;;;52.58;21.75;;;;;;;;;;5027803;28;20104;-72
2021/12/23 00:29:32;;;;;;;60.28;20.73;;;;;;;;;;5028489;28;20072;-72
2021/12/23 00:31:59;;;;;;;55.90;22.05;;;;;;;;;;5028386;28;20342;-73
2021/12/23 00:34:26;;;;;;;55.80;21.70;;;;;;;;;;5010470;28;20384;-72
2021/12/23 00:36:53;;;;;;;56.08;21.92;;;;;;;;;;5028012;28;20033;-70
2021/12/23 00:39:20;;;;;;;57.45;20.85;;;;;;;;;;5027660;28;20033;-73
2021/12/23 00:41:46;;;;;;;57.00;20.55;;;;;;;;;;5028123;28;20049;-74
2021/12/23 00:44:15;;;;;;;55.20;20.60;;;;;;;;;;5031299;28;20037;-73
2021/12/23 00:46:41;;;;;;;62.42;24.90;;;;;;;;;;5014181;28;20033;-73
2021/12/23 00:49:07;;;;;;;53.42;22.35;;;;;;;;;;5031895;28;20048;-73
2021/12/23 00:51:36;;;;;;;51.78;20.67;;;;;;;;;;5032281;28;20097;-73
2021/12/23 00:54:04;;;;;;;61.70;21.98;;;;;;;;;;5031655;28;20129;-74
2021/12/23 00:56:35;;;;;;;55.42;22.67;;;;;;;;;;5031480;28;20047;-74
2021/12/23 00:59:01;;;;;;;53.63;21.25;;;;;;;;;;5031919;28;20091;-72
2021/12/23 01:01:27;;;;;;;54.97;20.98;;;;;;;;;;5031985;28;20025;-73
2021/12/23 01:03:53;;;;;;;60.05;22.00;;;;;;;;;;5004859;28;20120;-73
2021/12/23 01:06:19;;;;;;;61.75;21.50;;;;;;;;;;5031558;28;20029;-73
2021/12/23 01:08:45;;;;;;;54.08;20.60;;;;;;;;;;5030186;28;20033;-73
2021/12/23 01:11:11;;;;;;;52.20;21.55;;;;;;;;;;4688720;28;9999624;-73
2021/12/23 01:13:38;;;;;;;61.70;22.05;;;;;;;;;;5047749;28;20025;-72
2021/12/23 01:16:07;;;;;;;67.35;21.38;;;;;;;;;;5035228;28;20054;-72
2021/12/23 01:18:43;;;;;;;57.10;21.55;;;-1.30;99.90;;;;;;5044194;28;20044;-75
2021/12/23 01:21:18;;;;;;;60.17;23.17;;;;;;;;;;5048398;28;20105;-74
2021/12/23 01:23:50;;;;;;;59.20;21.48;;;-1.90;99.90;;;;;;5036278;28;20029;-74
2021/12/23 01:26:19;;;;;;;57.03;21.17;;;;;;;;;;5033644;28;20033;-73
2021/12/23 01:28:47;;;;;;;59.08;21.77;;;-2.00;99.90;;;;;;5034957;28;20112;-73
2021/12/23 01:31:13;;;;;;;59.78;22.85;;;;;;;;;;5039692;28;20482;-71
2021/12/23 01:33:39;;;;;;;56.33;22.23;;;;;;;;;;5054299;28;20033;-73
2021/12/23 01:36:05;;;;;;;52.40;20.20;;;;;;;;;;5045079;28;20392;-73
2021/12/23 01:38:31;;;;;;;54.58;21.88;;;;;;;;;;5034456;28;20078;-71
2021/12/23 01:40:57;;;;;;;52.42;19.60;;;;;;;;;;5034186;28;20037;-73
2021/12/23 01:43:23;;;;;;;60.55;21.90;;;;;;;;;;5034193;28;20026;-73
2021/12/23 01:45:50;;;;;;;61.10;21.20;;;;;;;;;;5016090;28;20203;-74
2021/12/23 01:48:16;;;;;;;63.40;22.95;;;;;;;;;;5033276;28;20030;-74
2021/12/23 01:50:43;;;;;;;54.28;21.52;;;;;;;;;;5034321;28;20037;-73
2021/12/23 01:53:09;;;;;;;54.38;21.15;;;;;;;;;;5034436;28;20030;-74
2021/12/23 01:55:35;;;;;;;49.97;20.63;;;;;;;;;;5034308;28;20029;-74
2021/12/23 01:58:02;;;;;;;47.58;19.90;;;;;;;;;;5033632;28;20553;-74
2021/12/23 02:00:30;;;;;;;52.92;22.60;;;-2.00;99.90;;;;;;5033968;28;20108;-73
2021/12/23 02:02:56;;;;;;;62.65;21.48;;;-2.10;99.90;;;;;;5033895;28;20017;-73
2021/12/23 02:05:23;;;;;;;49.92;21.60;;;;;;;;;;5034731;28;20033;-73
2021/12/23 02:07:49;;;;;;;61.25;22.23;;;;;;;;;;5033859;28;20403;-74
2021/12/23 02:10:15;;;;;;;59.65;22.33;;;;;;;;;;5034242;28;20033;-72
2021/12/23 02:12:45;;;;;;;59.72;21.90;;;;;;;;;;5014901;28;20067;-74
2021/12/23 02:15:12;;;;;;;61.15;22.23;;;;;;;;;;5033551;28;20104;-74
2021/12/23 02:17:38;;;;;;;57.28;21.45;;;;;;;;;;5033122;28;20095;-74
2021/12/23 02:20:06;;;;;;;60.13;21.42;;;;;;;;;;5033355;28;20456;-74
2021/12/23 02:22:32;;;;;;;68.53;23.50;;;;;;;;;;5035902;28;20107;-74
2021/12/23 02:24:58;;;;;;;56.33;21.63;;;;;;;;;;5053743;28;20458;-74
2021/12/23 02:27:24;;;;;;;55.25;20.27;;;;;;;;;;5034976;28;20025;-74
2021/12/23 02:29:50;;;;;;;55.50;22.02;;;;;;;;;;5038722;28;20063;-74
2021/12/23 02:32:15;;;;;;;56.83;21.90;;;;;;;;;;5032993;28;20025;-74
2021/12/23 02:34:41;;;;;;;57.55;21.45;;;;;;;;;;5032244;28;20483;-74
2021/12/23 02:37:07;;;;;;;54.33;21.90;;;;;;;;;;5031932;28;20021;-73
2021/12/23 02:39:33;;;;;;;57.15;22.60;;;;;;;;;;5015111;28;20049;-74
2021/12/23 02:42:00;;;;;;;59.25;22.23;;;;;;;;;;5014945;28;20026;-74
2021/12/23 02:44:26;;;;;;;63.78;22.70;;;;;;;;;;5033124;28;20029;-75
2021/12/23 02:46:52;;;;;;;54.05;20.65;;;;;;;;;;5032007;28;20052;-74
2021/12/23 02:49:18;;;;;;;57.88;22.05;;;;;;;;;;5032752;28;20022;-74
2021/12/23 02:51:44;;;;;;;61.75;22.27;;;;;;;;;;5032887;28;20463;-74
2021/12/23 02:54:11;;;;;;;57.28;21.98;;;;;;;;;;5015441;28;20502;-74
2021/12/23 02:56:37;;;;;;;55.95;20.75;;;;;;;;;;5033496;28;20151;-74
2021/12/23 02:59:03;;;;;;;53.00;21.80;;;;;;;;;;5027002;28;20037;-74
2021/12/23 03:01:29;;;;;;;60.35;22.60;;;;;;;;;;5033428;28;20025;-74
2021/12/23 03:03:55;;;;;;;54.63;21.35;;;;;;;;;;5032986;28;20021;-73
2021/12/23 03:06:22;;;;;;;45.08;19.42;;;;;;;;;;5013772;28;20033;-73
2021/12/23 03:08:51;;;;;;;47.97;21.50;;;-1.70;99.90;;;;;;5032631;28;20533;-74
2021/12/23 03:11:19;;;;;;;54.45;22.23;;;;;;;;;;5031807;28;20049;-74
2021/12/23 03:13:45;;;;;;;49.72;21.00;;;;;;;;;;5015056;28;20380;-74
2021/12/23 03:16:12;;;;;;;58.67;22.25;;;-1.70;99.90;;;;;;5032768;28;20029;-74
2021/12/23 03:18:38;;;;;;;47.08;21.60;;;;;;;;;;5014762;28;20048;-74
2021/12/23 03:21:05;;;;;;;50.33;21.92;;;;;;;;;;5031726;28;20045;-74
2021/12/23 03:23:32;;;;;;;64.05;22.05;;;;;;;;;;5014757;28;20021;-74
2021/12/23 03:25:58;;;;;;;61.85;22.67;;;;;;;;;;5032428;28;20466;-74
2021/12/23 03:28:24;;;;;;;56.25;21.88;;;;;;;;;;5032618;28;20391;-74
2021/12/23 03:30:50;;;;;;;62.53;21.58;;;;;;;;;;5031976;28;20033;-74
2021/12/23 03:33:17;;;;;;;59.55;22.40;;;;;;;;;;5032142;28;20193;-74
2021/12/23 03:35:43;;;;;;;56.42;22.67;;;;;;;;;;5031960;28;20079;-74
2021/12/23 03:38:09;;;;;;;66.63;22.67;;;;;;;;;;5031532;28;20029;-74
2021/12/23 03:40:35;;;;;;;59.25;23.17;;;;;;;;;;5031707;28;20017;-73
2021/12/23 03:43:01;;;;;;;55.10;22.92;;;;;;;;;;5032267;28;20029;-74
2021/12/23 03:45:27;;;;;;;61.95;22.40;;;;;;;;;;5031848;28;20026;-74
2021/12/23 03:47:53;;;;;;;59.45;22.40;;;;;;;;;;5031396;28;20041;-74
2021/12/23 03:50:22;;;;;;;57.00;22.88;;;;;;;;;;5013254;28;20037;-74
2021/12/23 03:52:48;;;;;;;57.67;23.75;;;;;;;;;;5031522;28;20033;-74
2021/12/23 03:55:15;;;;;;;61.45;22.33;;;-1.50;99.90;;;;;;5031557;28;20033;-74
2021/12/23 03:57:41;;;;;;;63.88;23.95;;;;;;;;;;5013531;28;20064;-74
2021/12/23 04:00:09;;;;;;;63.47;24.85;;;;;;;;;;5014085;28;20578;-72
2021/12/23 04:02:35;;;;;;;58.78;23.85;;;;;;;;;;5013684;28;20029;-74
2021/12/23 04:05:02;;;;;;;60.78;25.98;;;;;;;;;;5031162;28;20108;-74
2021/12/23 04:07:28;;;;;;;64.10;24.63;;;;;;;;;;5031385;28;20076;-74
2021/12/23 04:09:54;;;;;;;66.70;25.30;;;;;;;;;;5031214;28;20022;-73
2021/12/23 04:12:21;;;;;;;66.30;24.40;;;;;;;;;;5031510;28;20029;-74
2021/12/23 04:14:47;;;;;;;63.33;23.98;;;;;;;;;;5031605;28;20021;-74
2021/12/23 04:17:13;;;;;;;63.20;23.60;;;;;;;;;;5031620;28;20026;-75
2021/12/23 04:19:40;;;;;;;58.97;22.38;;;;;;;;;;5031361;28;20073;-73
2021/12/23 04:22:05;;;;;;;65.95;25.00;;;;;;;;;;5031729;28;20438;-74
2021/12/23 04:24:31;;;;;;;70.03;24.73;;;;;;;;;;5031217;28;20082;-74
2021/12/23 04:26:57;;;;;;;70.57;25.77;;;;;;;;;;5031740;28;20033;-74
2021/12/23 04:29:23;;;;;;;71.35;25.60;;;;;;;;;;5031938;28;20104;-74
2021/12/23 04:31:50;;;;;;;64.88;25.05;;;;;;;;;;5013787;28;20511;-74
2021/12/23 04:34:16;;;;;;;64.90;25.50;;;;;;;;;;5031570;28;20025;-74
2021/12/23 04:36:42;;;;;;;67.68;24.63;;;;;;;;;;5014486;28;20029;-74
2021/12/23 04:39:08;;;;;;;63.53;24.75;;;;;;;;;;5033748;28;20024;-74
2021/12/23 04:41:34;;;;;;;70.40;25.02;;;;;;;;;;5031771;28;20030;-74
2021/12/23 04:44:00;;;;;;;62.40;25.48;;;;;;;;;;5031310;28;20024;-74
2021/12/23 04:46:26;;;;;;;73.78;24.63;;;;;;;;;;5031225;28;20033;-74
2021/12/23 04:48:52;;;;;;;79.22;26.30;;;-0.80;99.90;;;;;;5034425;23;20057;-70
2021/12/23 04:51:18;;;;;;;68.65;25.27;;;-0.90;99.90;;;;;;5011014;28;20036;-69
2021/12/23 04:53:45;;;;;;;60.67;23.83;;;;;;;;;;5011403;28;20440;-68
2021/12/23 04:56:11;;;;;;;65.07;24.52;;;;;;;;;;5011264;28;20121;-69
2021/12/23 04:58:37;;;;;;;58.25;23.75;;;;;;;;;;5011653;28;20026;-69
2021/12/23 05:01:06;;;;;;;60.67;22.88;;;;;;;;;;5011299;28;20029;-69
2021/12/23 05:03:32;;;;;;;71.97;26.58;;;;;;;;;;4992009;28;20034;-69
2021/12/23 05:05:58;;;;;;;61.85;23.98;;;;;;;;;;5010650;28;20042;-68
2021/12/23 05:08:24;;;;;;;64.45;24.75;;;;;;;;;;5011443;28;20084;-70
2021/12/23 05:10:50;;;;;;;63.95;25.23;;;;;;;;;;5011090;28;20464;-70
2021/12/23 05:13:16;;;;;;;59.20;23.55;;;;;;;;;;5011520;28;20037;-70
2021/12/23 05:15:42;;;;;;;66.93;25.25;;;;;;;;;;5011006;28;20041;-70
2021/12/23 05:18:08;;;;;;;69.88;24.50;;;;;;;;;;5011016;28;20034;-70
2021/12/23 05:20:34;;;;;;;63.45;24.20;;;;;;;;;;5010535;28;20060;-70
2021/12/23 05:23:00;;;;;;;67.20;24.00;;;;;;;;;;5011255;28;20054;-70
2021/12/23 05:25:26;;;;;;;71.20;25.00;;;;;;;;;;5010982;28;20062;-69
2021/12/23 05:27:54;;;;;;;62.05;23.75;;;;;;;;;;5008992;28;20546;-70
2021/12/23 05:30:21;;;;;;;49.78;22.77;;;;;;;;;;5013171;28;20045;-70
2021/12/23 05:32:47;;;;;;;66.80;24.60;;;;;;;;;;5031564;28;20166;-70
2021/12/23 05:35:13;;;;;;;60.20;23.58;;;;;;;;;;5014514;28;20061;-70
2021/12/23 05:37:40;;;;;;;61.83;22.67;;;-0.80;99.90;;;;;;5021788;28;20087;-71
2021/12/23 05:40:07;;;;;;;71.22;25.02;;;-0.80;99.90;;;;;;5023229;28;20395;-70
2021/12/23 05:42:33;;;;;;;57.30;24.95;;;;;;;;;;5014715;28;20026;-70
2021/12/23 05:44:59;;;;;;;60.72;24.50;;;;;;;;;;5008497;28;20033;-70
2021/12/23 05:47:25;;;;;;;72.65;25.85;;;;;;;;;;5011152;28;20192;-71
2021/12/23 05:49:51;;;;;;;67.07;24.55;;;;;;;;;;5008553;28;20163;-70
2021/12/23 05:52:17;;;;;;;64.72;25.00;;;;;;;;;;5008452;28;20039;-70
2021/12/23 05:54:43;;;;;;;62.88;23.85;;;;;;;;;;5013638;28;20037;-70
2021/12/23 05:57:09;;;;;;;71.25;24.73;;;;;;;;;;5013829;28;20026;-70
2021/12/23 05:59:35;;;;;;;56.28;24.15;;;-0.40;99.90;;;;;;5013544;28;20030;-70
2021/12/23 06:02:01;;;;;;;72.68;25.92;;;;;;;;;;5013205;28;20112;-70
2021/12/23 06:04:27;;;;;;;70.95;25.80;;;-0.70;99.90;;;;;;5013777;28;20117;-70
2021/12/23 06:06:53;;;;;;;67.15;24.83;;;;;;;;;;5013507;28;20105;-71
2021/12/23 06:09:19;;;;;;;58.53;23.10;;;;;;;;;;4998184;28;20089;-70
2021/12/23 06:11:45;;;;;;;69.38;24.90;;;;;;;;;;5013747;28;20424;-71
2021/12/23 06:14:11;;;;;;;72.07;26.13;;;;;;;;;;5013841;28;20033;-71
2021/12/23 06:16:37;;;;;;;63.85;24.70;;;;;;;;;;5012981;28;20391;-71
2021/12/23 06:19:03;;;;;;;66.60;24.88;;;;;;;;;;5012239;28;20158;-72
2021/12/23 06:21:31;;;;;;;62.28;25.13;;;;;;;;;;5013411;28;20068;-72
2021/12/23 06:23:57;;;;;;;61.80;24.98;;;-1.30;99.90;;;;;;5016600;28;20076;-71
2021/12/23 06:26:23;;;;;;;70.40;25.83;;;;;;;;;;5001248;28;20532;-70
2021/12/23 06:28:49;;;;;;;65.00;24.38;;;;;;;;;;5006022;28;20038;-71
2021/12/23 06:31:15;;;;;;;60.13;23.73;;;;;;;;;;5008774;28;20030;-72
2021/12/23 06:33:41;;;;;;;57.92;25.27;;;;;;;;;;5008227;28;20034;-69
2021/12/23 06:36:08;;;;;;;56.63;23.05;;;;;;;;;;5008472;28;20076;-71
2021/12/23 06:38:35;;;;;;;64.97;24.42;;;;;;;;;;5008525;28;20373;-69
2021/12/23 06:41:01;;;;;;;61.50;24.95;;;-0.70;99.90;;;;;;5006636;28;20387;-69
2021/12/23 06:43:27;;;;;;;57.30;23.75;;;;;;;;;;5008465;28;20154;-71
2021/12/23 06:45:53;;;;;;;62.03;24.63;;;-0.50;99.90;;;;;;5008484;28;20030;-70
2021/12/23 06:48:19;;;;;;;58.55;23.20;;;-0.50;99.90;;;;;;5007519;28;20029;-71
2021/12/23 06:50:45;;;;;;;62.75;24.05;;;-0.70;99.90;;;;;;5006794;28;20049;-70
2021/12/23 06:53:14;;;;;;;64.68;24.38;;;-0.50;99.90;;;;;;4990669;28;20022;-72
2021/12/23 06:55:40;;;;;;;63.03;24.42;;;;;;;;;;5007156;28;20155;-71
2021/12/23 06:58:07;;;;;;;57.88;23.85;;;;;;;;;;5008124;28;20037;-71
2021/12/23 07:00:32;;;;;;;55.17;22.27;;;;;;;;;;5006459;28;20022;-71
2021/12/23 07:02:59;;;;;;;59.20;22.83;;;;;;;;;;5007671;28;20519;-70
2021/12/23 07:05:25;;;;;;;50.80;23.50;;;;;;;;;;5004153;28;20038;-71
2021/12/23 07:08:03;;;;;;;67.25;23.95;;;;;;;;;;5001391;28;20026;-71
2021/12/23 07:10:29;;;;;;;52.00;21.63;;;;;;;;;;4994802;28;20029;-70
2021/12/23 07:12:56;;;;;;;48.80;21.63;;;;;;;;;;5007728;28;20373;-71
2021/12/23 07:15:24;;;;;;;59.15;22.90;;;-0.20;99.90;;;;;;5008054;28;20294;-70
2021/12/23 07:17:50;;;;;;;55.20;22.15;;;;;;;;;;5005974;28;20014;-71
2021/12/23 07:20:16;;;;;;;59.33;22.95;;;;;;;;;;5007568;28;20018;-72
2021/12/23 07:22:42;;;;;;;55.33;24.23;;;;;;;;;;4999847;28;20449;-71
2021/12/23 07:25:08;;;;;;;67.57;25.52;;;;;;;;;;4991605;28;20026;-70
2021/12/23 07:27:34;;;;;;;56.85;21.98;;;0.00;99.90;;;;;;5002851;28;20037;-71
2021/12/23 07:30:00;;;;;;;59.90;22.17;;;;;;;;;;5004040;28;20092;-70
2021/12/23 07:32:26;;;;;;;58.70;23.08;;;;;;;;;;5000099;28;20338;-72
2021/12/23 07:34:52;;;;;;;59.70;22.52;;;;;;;;;;4999787;28;20096;-71
2021/12/23 07:37:18;;;;;;;56.92;23.00;;;;;;;;;;4994289;28;20113;-69
2021/12/23 07:39:44;;;;;;;58.13;22.88;;;;;;;;;;5003387;28;20048;-71
2021/12/23 07:42:15;;;;;;;56.22;22.88;;;;;;;;;;5000192;28;20661;-69
2021/12/23 07:44:41;;;;;;;59.45;23.05;;;;;;;;;;4993980;28;20019;-70
2021/12/23 07:47:07;;;;;;;61.47;21.65;;;;;;;;;;4998434;28;20408;-70
2021/12/23 07:49:33;;;;;;;60.55;23.38;;;;;;;;;;5002360;28;20026;-71
2021/12/23 07:51:59;;;;;;;55.10;22.83;;;;;;;;;;5000584;28;20436;-70
2021/12/23 07:54:25;;;;;;;56.58;22.00;;;;;;;;;;4995048;28;20023;-71
2021/12/23 07:56:51;;;;;;;64.85;21.80;;;;;;;;;;4995692;28;20104;-70
2021/12/23 07:59:17;;;;;;;55.10;21.70;;;;;;;;;;5006242;28;20123;-72
2021/12/23 08:01:56;;;;;;;50.83;21.38;;;-0.30;99.90;;;;;;5080523;28;20420;-71
2021/12/23 08:04:22;;;;;;;55.00;22.10;;;;;;;;;;5078298;28;20028;-74
2021/12/23 08:06:54;;;;;;;52.85;21.70;;;;;;;;;;5083056;28;20033;-72
2021/12/23 08:09:20;;;;;;;54.20;22.08;;;;;;;;;;5066218;28;20107;-73
2021/12/23 08:11:46;;;;;;;53.78;21.38;;;;;;;;;;5052193;28;20414;-72
2021/12/23 08:14:11;;;;;;;58.42;21.58;;;0.20;99.90;;;;;;5076391;28;20401;-68
2021/12/23 08:16:37;;;;;;;58.60;21.75;;;;;;;;;;5075992;28;20017;-70
2021/12/23 08:19:04;;;;;;;52.67;21.15;;;;;;;;;;5060029;28;20040;-70
2021/12/23 08:21:30;;;;;;;60.53;23.05;;;;;;;;;;5064831;28;20041;-68
2021/12/23 08:23:56;;;;;;;49.38;21.52;;;;;;;;;;5075664;28;20514;-70
2021/12/23 08:26:27;;;;;;;50.30;21.83;;;;;;;;;;5078083;28;20040;-70
2021/12/23 08:28:54;;;;;;;57.58;22.48;;;0.00;99.90;;;;;;5063738;28;20025;-69
2021/12/23 08:31:21;;;;;;;51.75;23.48;;;;;;;;;;5065203;28;20029;-71
2021/12/23 08:33:47;;;;;;;57.97;23.00;;;;;;;;;;5075225;28;20021;-71
2021/12/23 08:36:13;;;;;;;56.47;22.27;;;;;;;;;;5066258;28;20032;-69
2021/12/23 08:38:40;;;;;;;56.42;21.58;;;;;;;;;;5071092;28;20078;-71
2021/12/23 08:41:06;;;;;;;64.20;22.30;;;;;;;;;;5059721;28;20033;-70
2021/12/23 08:43:32;;;;;;;51.33;21.02;;;;;;;;;;5044824;28;20502;-71
2021/12/23 08:45:57;;;;;;;46.80;21.33;;;0.50;99.90;;;;;;5078908;28;20104;-70
2021/12/23 08:48:23;;;;;;;53.95;21.08;;;0.40;99.90;;;;;;5058367;28;20053;-70
2021/12/23 08:50:49;;;;;;;63.88;21.35;;;;;;;;;;5054211;28;20508;-71
2021/12/23 08:53:15;;;;;;;51.95;22.33;;;;;;;;;;5061590;28;20021;-70
2021/12/23 08:55:41;;;;;;;51.92;20.35;;;;;;;;;;5055394;28;20035;-69
2021/12/23 08:58:07;;;;;;;58.55;22.52;;;;;;;;;;5067484;28;20078;-70
2021/12/23 09:00:35;;;;;;;55.78;21.17;;;;;;;;;;5062818;28;20029;-70
2021/12/23 09:03:01;;;;;;;53.05;20.33;;;;;;;;;;5069369;28;20074;-71
2021/12/23 09:05:27;;;;;;;47.15;21.65;;;;;;;;;;5058570;28;20092;-70
2021/12/23 09:07:53;;;;;;;44.83;21.05;;;;;;;;;;5059222;28;20491;-68
2021/12/23 09:10:19;;;;;;;49.28;21.90;;;;;;;;;;5072818;28;20024;-71
2021/12/23 09:12:46;;;;;;;46.65;21.98;;;;;;;;;;5060958;28;20386;-68
2021/12/23 09:15:12;;;;;;;47.58;21.45;;;;;;;;;;5044456;28;20028;-69
2021/12/23 09:17:38;;;;;;;56.70;21.65;;;;;;;;;;5048538;28;20409;-70
2021/12/23 09:20:04;;;;;;;46.13;20.48;;;;;;;;;;5048857;28;20305;-68
2021/12/23 09:22:31;;;;;;;51.65;20.98;;;;;;;;;;5042642;28;20044;-71
2021/12/23 09:25:02;;;;;;;52.60;21.40;;;;;;;;;;5059300;28;20544;-70
2021/12/23 09:27:37;;;;;;;62.10;22.60;;;;;;;;;;5054877;28;20124;-68
2021/12/23 09:32:52;;;;;;;49.42;20.08;;;;;;;;;;5039859;28;20099;-70
2021/12/23 09:35:20;;;;;;;45.70;20.90;;;1.30;99.90;;;;;;5038148;28;20422;-68
2021/12/23 09:37:46;;;;;;;47.45;18.75;;;1.20;99.90;;;;;;5054059;28;20024;-70
2021/12/23 09:40:12;;;;;;;49.72;20.73;;;;;;;;;;5064265;28;20036;-70
2021/12/23 09:42:39;;;;;;;48.10;19.95;;;;;;;;;;5041389;28;20670;-69
2021/12/23 09:45:09;;;;;;;51.90;20.20;;;;;;;;;;5048433;28;20104;-70
2021/12/23 09:47:36;;;;;;;50.60;19.90;;;;;;;;;;5065588;28;20017;-72
2021/12/23 09:50:05;;;;;;;50.25;19.80;;;1.70;99.90;;;;;;5087559;28;20013;-71
2021/12/23 09:52:33;;;;;;;42.95;21.17;;;1.90;99.90;;;;;;5077410;28;20060;-70
2021/12/23 09:55:04;;;;;;;49.90;19.85;;;1.90;99.90;;;;;;5060429;28;20070;-71
2021/12/23 09:57:30;;;;;;;42.55;18.30;;;2.00;99.90;;;;;;5044923;28;20025;-70
2021/12/23 09:59:56;;;;;;;46.50;19.23;;;;;;;;;;5046697;28;20032;-70
2021/12/23 10:02:23;;;;;;;42.05;18.88;;;2.00;99.90;;;;;;5062886;28;20020;-70
2021/12/23 10:04:49;;;;;;;44.30;19.88;;;;;;;;;;5057356;28;20033;-72
2021/12/23 10:07:15;;;;;;;45.95;20.00;;;;;;;;;;5063005;28;20761;-68
2021/12/23 10:09:51;;;;;;;41.97;18.42;;;;;;;;;;5049366;28;20031;-67
2021/12/23 10:30:09;;;;;;;54.95;20.75;;;;;;;;;;5051184;28;20075;-69
2021/12/23 10:31:41;;;;;;;41.67;17.08;;;;;;;;;;5045124;28;20041;-69
2021/12/23 10:37:23;;;;;;;46.00;18.08;;;;;;;;;;5052579;28;20039;-67
2021/12/23 10:39:48;;;;;;;;;;;;;;;;;;5039475;28;20124;-68
2021/12/23 10:42:21;;;;;;;41.40;18.13;;;3.00;99.90;;;;;;5049920;28;20042;-68
2021/12/23 10:44:59;;;;;;;39.67;18.13;;;2.90;99.90;;;;;;5051270;28;20490;-68
2021/12/23 10:48:05;;;;;;;41.45;18.25;;;;;;;;;;5045510;28;20080;-67
2021/12/23 10:50:40;;;;;;;38.22;16.27;;;;;;;;;;5045000;28;21966;-67
2021/12/23 10:53:14;;;;;;;32.15;15.82;;;3.10;99.90;;;;;;5047217;28;20035;-66
2021/12/23 10:58:26;;;;;;;;;;;0.90;99.90;;;;;;5041755;28;20071;-68
2021/12/23 11:00:59;;;;;;;38.35;17.63;;;3.10;99.90;;;;;;4348688;28;10000679;-68
2021/12/23 11:03:30;;;;;;;29.80;16.00;;;;;;;;;;5050017;28;20074;-68
2021/12/23 11:06:25;;;;;;;33.70;16.30;;;3.10;99.90;;;;;;5043751;28;20052;-68
2021/12/23 11:09:42;;;;;;;38.60;17.70;;;;;;;;;;5041853;28;20028;-68
2021/12/23 11:43:52;;;;;;;32.00;14.80;;;;;;;;;;5046341;28;20538;-69
2021/12/23 11:46:25;;;;;;;27.30;13.85;;;;;;;;;;5044567;28;20009;-68
2021/12/23 11:48:54;;;;;;;27.75;15.48;;;;;;;;;;5026878;28;20040;-69
2021/12/23 11:51:32;;;;;;;27.58;13.70;;;;;;;;;;4688235;28;10000443;-68
2021/12/23 11:53:59;;;;;;;30.65;15.20;;;;;;;;;;5055146;28;20056;-70
2021/12/23 11:56:26;;;;;;;27.75;14.02;;;;;;;;;;5045339;28;20319;-72
2021/12/23 11:58:55;;;;;;;23.55;14.23;;;;;;;;;;5043590;28;20044;-67
2021/12/23 12:01:28;;;;;;;27.52;14.23;;;3.20;99.90;;;;;;5043582;28;20024;-69
2021/12/23 12:03:54;;;;;;;22.77;12.50;;;;;;;;;;5051093;28;20113;-68
2021/12/23 12:06:26;;;;;;;30.30;13.73;;;6.30;99.90;;;;;;5045930;28;20079;-69
2021/12/23 12:08:54;;;;;;;26.40;13.55;;;4.10;99.90;;;;;;5051212;28;20031;-71
2021/12/23 12:11:23;;;;;;;23.08;13.50;;;4.30;99.90;;;;;;5051690;28;20197;-69
2021/12/23 12:13:49;;;;;;;22.77;13.25;;;4.30;99.90;;;;;;5050172;28;20020;-71
2021/12/23 12:16:26;;;;;;;20.45;13.02;;;4.40;99.90;;;;;;5045566;28;20027;-68
2021/12/23 12:18:52;;;;;;;23.60;13.30;;;;;;;;;;5046988;28;20033;-71
2021/12/23 12:21:25;;;;;;;22.13;13.45;;;4.10;99.90;;;;;;5052566;28;20585;-71
2021/12/23 12:24:18;;;;;;;25.90;13.63;;;3.80;99.90;;;;;;5054784;28;20613;-70
2021/12/23 12:26:52;;;;;;;27.88;13.73;;;3.70;99.90;;;;;;5050030;28;20415;-71
2021/12/23 12:29:20;;;;;;;30.92;12.57;;;3.70;99.90;;;;;;5047002;28;20054;-69
2021/12/23 12:31:47;;;;;;;15.88;11.68;;;;;;;;;;5044255;28;20141;-71
2021/12/23 12:34:13;;;;;;;19.17;12.77;;;;;;;;;;5030950;28;20167;-71
2021/12/23 12:36:43;;;;;;;20.48;11.05;;;3.60;99.90;;;;;;4694446;28;10000431;-70
2021/12/23 12:39:09;;;;;;;23.92;11.60;;;;;;;;;;5035966;28;20028;-72
2021/12/23 12:41:36;;;;;;;19.85;11.30;;;;;;;;;;5043501;28;20025;-68
2021/12/23 12:44:04;;;;;;;21.70;12.70;;;;;;;;;;5041273;28;20032;-71
2021/12/23 12:46:37;;;;;;;24.40;13.88;;;;;;;;;;5043807;28;20056;-70
2021/12/23 12:49:10;;;;;;;25.80;13.18;;;;;;;;;;5078722;23;20041;-73
2021/12/23 12:51:38;;;;;;;21.60;13.25;;;3.20;99.90;;;;;;5038671;28;20842;-72
2021/12/23 12:54:07;;;;;;;24.05;13.45;;;;;;;;;;5038062;28;20071;-72
2021/12/23 12:56:35;;;;;;;27.58;12.40;;;5.80;99.90;;;;;;5046237;28;20048;-74
2021/12/23 12:59:01;;;;;;;28.10;13.95;;;;;;;;;;5029777;28;20521;-72
2021/12/23 13:01:34;;;;;;;21.63;13.45;;;2.80;99.90;;;;;;5029446;28;20049;-72
2021/12/23 13:04:01;;;;;;;27.70;13.52;;;;;;;;;;5027105;28;20505;-72
2021/12/23 13:06:37;;;;;;;23.58;13.70;;;2.90;99.90;;;;;;5019486;28;20018;-72
2021/12/23 13:09:11;;;;;;;20.35;12.50;;;2.80;99.90;;;;;;5026997;28;20079;-73
2021/12/23 13:11:42;;;;;;;22.38;12.65;;;2.70;99.90;;;;;;5033244;28;20029;-73
2021/12/23 13:14:13;;;;;;;29.00;13.88;;;;;;;;;;5033010;28;20033;-72
2021/12/23 13:16:56;;;;;;;22.67;12.80;;;;;;;;;;5033567;28;20029;-73
2021/12/23 13:19:22;;;;;;;34.65;13.68;;;;;;;;;;5031406;28;20479;-73
2021/12/23 13:21:49;;;;;;;31.00;14.68;;;;;;;;;;5034278;28;20025;-74
2021/12/23 13:24:21;;;;;;;29.50;13.65;;;3.00;99.90;;;;;;5034939;28;20105;-74
2021/12/23 13:26:48;;;;;;;28.20;14.40;;;2.90;99.90;;;;;;4688708;28;9999861;-74
2021/12/23 13:29:14;;;;;;;22.75;14.18;;;;;;;;;;5034509;28;20116;-73
2021/12/23 13:31:42;;;;;;;33.45;14.98;;;2.90;99.90;;;;;;5032794;28;20065;-74
2021/12/23 13:34:12;;;;;;;25.98;14.10;;;2.80;99.90;;;;;;5033819;28;20018;-74
2021/12/23 13:36:46;;;;;;;27.02;13.82;;;3.00;99.90;;;;;;5031331;28;20284;-74
2021/12/23 13:39:21;;;;;;;24.45;14.88;;;2.80;99.90;;;;;;5033488;28;20394;-74
2021/12/23 13:42:01;;;;;;;29.40;14.85;;;2.80;99.90;;;;;;5034274;28;20039;-74
2021/12/23 13:44:29;;;;;;;26.27;13.70;;;2.70;99.90;;;;;;5034494;28;20083;-72
2021/12/23 13:47:21;;;;;;;26.08;14.82;;;2.40;99.90;;;;;;5033857;28;20071;-71
2021/12/23 13:49:58;;;;;;;35.03;15.98;;;2.60;99.90;;;;;;5032307;28;20046;-71
2021/12/23 13:52:29;;;;;;;21.48;13.93;;;2.50;99.90;;;;;;5032734;28;20056;-70
2021/12/23 13:55:03;;;;;;;23.02;15.07;;;2.30;99.90;;;;;;5033741;28;20032;-73
2021/12/23 13:57:33;;;;;;;21.75;14.27;;;2.60;99.90;;;;;;5031508;28;20083;-70
2021/12/23 14:00:00;;;;;;;33.17;15.07;;;;;;;;;;5034401;28;20518;-70
2021/12/23 14:02:27;;;;;;;39.42;15.13;;;2.60;99.90;;;;;;5034474;28;20490;-71
2021/12/23 14:04:59;;;;;;;31.20;15.90;;;2.60;99.90;;;;;;5032720;28;20022;-70
2021/12/23 14:07:36;;;;;;;30.00;14.68;;;2.70;99.90;;;;;;5032644;28;20025;-70
2021/12/23 14:10:15;;;;;;;30.70;15.18;;;2.70;99.90;;;;;;5032931;28;20022;-71
2021/12/23 14:12:52;;;;;;;24.00;13.80;;;2.70;99.90;;;;;;5034365;28;20017;-71
2021/12/23 14:15:18;;;;;;;30.00;14.40;;;;;;;;;;5033758;28;20028;-70
2021/12/23 14:17:46;;;;;;;24.95;13.85;;;2.50;99.90;;;;;;5031802;28;20036;-71
2021/12/23 14:23:15;;;;;;;27.20;14.77;;;2.70;99.90;;;;;;4672690;28;10000172;-69
2021/12/23 14:26:15;;;;;;;45.38;19.05;;;3.10;99.90;;;;;;5026517;28;20021;-71
2021/12/23 14:28:44;;;;;;;33.53;15.93;;;;;;;;;;4978265;28;20061;-74
2021/12/23 14:31:20;;;;;;;27.52;14.60;;;2.70;99.90;;;;;;5028152;28;20104;-71
2021/12/23 14:33:56;;;;;;;25.63;15.60;;;2.70;99.90;;;;;;5030232;28;20030;-71
2021/12/23 14:36:26;;;;;;;18.52;13.88;;;2.70;99.90;;;;;;5028375;28;21018;-71
2021/12/23 14:38:58;;;;;;;33.70;15.77;;;2.70;99.90;;;;;;5026465;28;20076;-70
2021/12/23 14:41:26;;;;;;;28.98;14.63;;;2.70;99.90;;;;;;5025916;28;20030;-70
2021/12/23 14:43:58;;;;;;;31.35;14.73;;;2.70;99.90;;;;;;5025601;28;20117;-72
2021/12/23 14:46:29;;;;;;;24.45;14.32;;;2.60;99.90;;;;;;5021469;28;20284;-70
2021/12/23 14:51:29;;;;;;;22.70;14.43;;;2.50;99.90;;;;;;5021720;28;20029;-70
2021/12/23 14:54:04;;;;;;;27.15;15.63;;;2.60;99.90;;;;;;5025695;28;20025;-69
2021/12/23 14:56:30;;;;;;;29.35;15.68;;;;;;;;;;5023892;28;20026;-69
2021/12/23 14:59:09;;;;;;;29.30;15.50;;;;;;;;;;5024719;28;20041;-72
2021/12/23 15:01:39;;;;;;;26.27;13.57;;;;;;;;;;5024519;28;20037;-73